createdAt,value
2017-12-30T00:00:31.294Z,1.80
2017-12-30T00:01:57.333Z,1.76
2017-12-30T00:03:25.461Z,1.78
2017-12-30T00:04:51.735Z,1.80
2017-12-30T00:06:18.798Z,1.81
2017-12-30T00:07:45.997Z,1.79
2017-12-30T00:09:12.972Z,1.78
2017-12-30T00:10:40.138Z,1.78
2017-12-30T00:12:08.419Z,1.80
2017-12-30T00:13:35.568Z,1.80
2017-12-30T00:15:02.759Z,1.80
2017-12-30T00:16:29.706Z,1.78
2017-12-30T00:17:56.860Z,1.72
2017-12-30T00:19:22.907Z,1.68
2017-12-30T00:20:51.186Z,1.69
2017-12-30T00:22:18.443Z,1.64
2017-12-30T00:23:45.668Z,1.59
2017-12-30T00:25:12.820Z,1.57
2017-12-30T00:26:38.972Z,1.53
2017-12-30T00:28:07.090Z,1.49
2017-12-30T00:29:33.266Z,1.49
2017-12-30T00:31:01.461Z,1.51
2017-12-30T00:32:28.653Z,1.51
2017-12-30T00:33:55.906Z,1.51
2017-12-30T00:35:23.030Z,1.46
2017-12-30T00:36:48.983Z,1.42
2017-12-30T00:38:16.203Z,1.41
2017-12-30T00:39:43.300Z,1.42
2017-12-30T00:41:10.454Z,1.41
2017-12-30T00:42:38.597Z,1.45
2017-12-30T00:44:04.700Z,1.51
2017-12-30T00:45:32.885Z,1.55
2017-12-30T00:46:58.921Z,1.58
2017-12-30T00:48:27.106Z,1.60
2017-12-30T00:49:54.197Z,1.60
2017-12-30T00:51:20.290Z,1.61
2017-12-30T00:52:48.687Z,1.64
2017-12-30T00:54:15.707Z,1.65
2017-12-30T00:55:41.861Z,1.67
2017-12-30T00:57:09.765Z,1.69
2017-12-30T00:58:35.949Z,1.71
2017-12-30T01:00:04.249Z,1.70
2017-12-30T01:01:31.270Z,1.71
2017-12-30T01:02:58.659Z,1.70
2017-12-30T01:04:24.802Z,1.70
2017-12-30T01:05:52.934Z,1.73
2017-12-30T01:07:20.201Z,1.75
2017-12-30T01:08:47.478Z,1.74
2017-12-30T01:10:14.308Z,1.78
2017-12-30T01:11:40.248Z,1.80
2017-12-30T01:13:07.234Z,1.76
2017-12-30T01:14:35.407Z,1.76
2017-12-30T01:16:02.582Z,1.77
2017-12-30T01:17:29.808Z,1.76
2017-12-30T01:18:56.962Z,1.77
2017-12-30T01:20:23.139Z,1.77
2017-12-30T01:21:50.124Z,1.77
2017-12-30T01:23:17.208Z,1.78
2017-12-30T01:24:45.321Z,1.80
2017-12-30T01:26:11.575Z,1.80
2017-12-30T01:27:38.720Z,1.79
2017-12-30T01:29:06.033Z,1.79
2017-12-30T01:30:34.233Z,1.75
2017-12-30T01:32:00.406Z,1.73
2017-12-30T01:33:28.660Z,1.73
2017-12-30T01:34:55.876Z,1.73
2017-12-30T01:36:22.050Z,1.75
2017-12-30T01:37:49.077Z,1.77
2017-12-30T01:39:17.064Z,1.78
2017-12-30T01:40:43.820Z,1.75
2017-12-30T01:42:11.096Z,1.76
2017-12-30T01:43:38.210Z,1.77
2017-12-30T01:45:05.354Z,1.78
2017-12-30T01:46:32.587Z,1.79
2017-12-30T01:47:58.706Z,1.79
2017-12-30T01:49:25.899Z,1.79
2017-12-30T01:50:54.149Z,1.81
2017-12-30T01:52:21.305Z,1.82
2017-12-30T01:53:47.399Z,1.82
2017-12-30T01:55:14.586Z,1.79
2017-12-30T01:56:42.650Z,1.80
2017-12-30T01:58:08.936Z,1.81
2017-12-30T01:59:36.146Z,1.81
2017-12-30T02:01:04.419Z,1.81
2017-12-30T02:02:30.438Z,1.82
2017-12-30T02:03:57.610Z,1.85
2017-12-30T02:05:25.705Z,1.87
2017-12-30T02:06:53.086Z,1.86
2017-12-30T02:08:20.002Z,1.86
2017-12-30T02:09:46.221Z,1.82
2017-12-30T02:11:13.426Z,1.84
2017-12-30T02:12:40.649Z,1.87
2017-12-30T02:14:08.900Z,1.87
2017-12-30T02:15:35.040Z,1.86
2017-12-30T02:17:02.181Z,1.87
2017-12-30T02:18:30.470Z,1.87
2017-12-30T02:19:56.537Z,1.87
2017-12-30T02:21:23.535Z,1.88
2017-12-30T02:22:55.466Z,1.88
2017-12-30T02:24:18.867Z,1.87
2017-12-30T02:25:46.013Z,1.84
2017-12-30T02:27:13.323Z,1.85
2017-12-30T02:28:40.618Z,1.87
2017-12-30T02:30:06.822Z,1.88
2017-12-30T02:31:34.072Z,1.85
2017-12-30T02:33:01.222Z,1.82
2017-12-30T02:34:28.486Z,1.82
2017-12-30T02:35:55.719Z,1.79
2017-12-30T02:37:23.933Z,1.81
2017-12-30T02:38:50.915Z,1.82
2017-12-30T02:40:18.165Z,1.84
2017-12-30T02:41:45.123Z,1.82
2017-12-30T02:43:12.308Z,1.82
2017-12-30T02:44:38.431Z,1.75
2017-12-30T02:46:06.634Z,1.75
2017-12-30T02:47:33.727Z,1.76
2017-12-30T02:49:01.017Z,1.77
2017-12-30T02:50:28.143Z,1.80
2017-12-30T02:51:55.436Z,1.86
2017-12-30T02:53:22.485Z,1.88
2017-12-30T02:54:48.655Z,1.90
2017-12-30T02:56:16.602Z,1.91
2017-12-30T02:57:43.672Z,1.94
2017-12-30T02:59:10.950Z,1.97
2017-12-30T03:00:38.009Z,1.97
2017-12-30T03:02:05.334Z,1.98
2017-12-30T03:03:32.268Z,1.96
2017-12-30T03:04:58.399Z,1.97
2017-12-30T03:06:25.608Z,1.98
2017-12-30T03:07:53.778Z,1.99
2017-12-30T03:09:20.005Z,2.02
2017-12-30T03:10:48.241Z,2.04
2017-12-30T03:12:14.012Z,2.06
2017-12-30T03:13:42.047Z,2.08
2017-12-30T03:15:09.245Z,2.10
2017-12-30T03:16:35.526Z,2.11
2017-12-30T03:18:02.735Z,2.10
2017-12-30T03:19:29.716Z,2.11
2017-12-30T03:20:57.849Z,2.11
2017-12-30T03:22:24.958Z,2.12
2017-12-30T03:23:51.129Z,2.11
2017-12-30T03:25:19.397Z,2.12
2017-12-30T03:26:46.532Z,2.12
2017-12-30T03:28:13.384Z,2.14
2017-12-30T03:29:39.381Z,2.14
2017-12-30T03:31:07.341Z,2.13
2017-12-30T03:32:33.575Z,2.16
2017-12-30T03:34:01.721Z,2.17
2017-12-30T03:35:27.692Z,2.18
2017-12-30T03:36:54.945Z,2.18
2017-12-30T03:38:22.209Z,2.18
2017-12-30T03:39:50.684Z,2.19
2017-12-30T03:41:17.730Z,2.20
2017-12-30T03:42:43.715Z,2.20
2017-12-30T03:44:10.987Z,2.20
2017-12-30T03:45:39.256Z,2.20
2017-12-30T03:47:05.458Z,2.21
2017-12-30T03:48:32.736Z,2.22
2017-12-30T03:50:00.788Z,2.23
2017-12-30T03:51:27.071Z,2.24
2017-12-30T03:52:54.245Z,2.24
2017-12-30T03:54:22.421Z,2.26
2017-12-30T03:55:48.782Z,2.26
2017-12-30T03:57:16.838Z,2.23
2017-12-30T03:58:42.820Z,2.24
2017-12-30T04:00:10.146Z,2.23
2017-12-30T04:01:37.362Z,2.25
2017-12-30T04:03:05.585Z,2.23
2017-12-30T04:04:31.786Z,2.23
2017-12-30T04:06:00.145Z,2.23
2017-12-30T04:07:27.287Z,2.24
2017-12-30T04:08:54.560Z,2.24
2017-12-30T04:10:21.676Z,2.24
2017-12-30T04:11:47.792Z,2.26
2017-12-30T04:13:16.039Z,2.27
2017-12-30T04:14:43.124Z,2.26
2017-12-30T04:16:10.220Z,2.27
2017-12-30T04:17:36.137Z,2.28
2017-12-30T04:19:03.503Z,2.29
2017-12-30T04:20:30.780Z,2.28
2017-12-30T04:21:58.097Z,2.23
2017-12-30T04:23:25.404Z,2.19
2017-12-30T04:24:53.621Z,2.14
2017-12-30T04:26:19.784Z,2.08
2017-12-30T04:27:47.764Z,2.12
2017-12-30T04:29:14.805Z,2.16
2017-12-30T04:30:41.156Z,2.19
2017-12-30T04:32:09.218Z,2.24
2017-12-30T04:33:36.476Z,2.26
2017-12-30T04:35:03.558Z,2.29
2017-12-30T04:36:30.800Z,2.31
2017-12-30T04:37:58.053Z,2.31
2017-12-30T04:39:25.327Z,2.32
2017-12-30T04:40:52.166Z,2.33
2017-12-30T04:42:18.406Z,2.32
2017-12-30T04:43:46.587Z,2.31
2017-12-30T04:45:13.652Z,2.32
2017-12-30T04:46:40.446Z,2.31
2017-12-30T04:48:06.688Z,2.32
2017-12-30T04:49:33.882Z,2.32
2017-12-30T04:51:01.863Z,2.30
2017-12-30T04:52:27.951Z,2.29
2017-12-30T04:53:55.124Z,2.28
2017-12-30T04:55:23.331Z,2.30
2017-12-30T04:56:50.341Z,2.28
2017-12-30T04:58:16.546Z,2.27
2017-12-30T04:59:43.568Z,2.23
2017-12-30T05:01:10.865Z,2.21
2017-12-30T05:02:37.881Z,2.26
2017-12-30T05:04:05.004Z,2.25
2017-12-30T05:05:33.253Z,2.26
2017-12-30T05:07:00.510Z,2.22
2017-12-30T05:08:26.551Z,2.20
2017-12-30T05:09:53.828Z,2.19
2017-12-30T05:11:22.142Z,2.18
2017-12-30T05:12:49.113Z,2.14
2017-12-30T05:14:15.339Z,2.17
2017-12-30T05:15:42.185Z,2.18
2017-12-30T05:17:09.333Z,2.18
2017-12-30T05:18:37.508Z,2.19
2017-12-30T05:20:04.851Z,2.23
2017-12-30T05:21:30.929Z,2.25
2017-12-30T05:22:58.167Z,2.27
2017-12-30T05:24:26.344Z,2.26
2017-12-30T05:25:52.556Z,2.28
2017-12-30T05:27:20.788Z,2.28
2017-12-30T05:28:46.782Z,2.30
2017-12-30T05:30:13.884Z,2.31
2017-12-30T05:31:41.050Z,2.33
2017-12-30T05:33:09.208Z,2.33
2017-12-30T05:34:35.509Z,2.37
2017-12-30T05:36:03.590Z,2.39
2017-12-30T05:37:29.657Z,2.38
2017-12-30T05:38:58.002Z,2.36
2017-12-30T05:40:24.072Z,2.33
2017-12-30T05:41:52.251Z,2.32
2017-12-30T05:43:18.423Z,2.32
2017-12-30T05:44:46.581Z,2.35
2017-12-30T05:46:12.399Z,2.37
2017-12-30T05:47:39.614Z,2.38
2017-12-30T05:49:07.795Z,2.40
2017-12-30T05:50:33.892Z,2.41
2017-12-30T05:52:02.922Z,2.40
2017-12-30T05:53:28.245Z,2.41
2017-12-30T05:54:56.527Z,2.38
2017-12-30T05:56:22.759Z,2.38
2017-12-30T05:57:49.834Z,2.39
2017-12-30T05:59:17.033Z,2.41
2017-12-30T06:00:44.084Z,2.41
2017-12-30T06:02:11.374Z,2.38
2017-12-30T06:03:38.594Z,2.38
2017-12-30T06:05:06.846Z,2.38
2017-12-30T06:06:33.961Z,2.38
2017-12-30T06:08:00.088Z,2.39
2017-12-30T06:09:28.220Z,2.38
2017-12-30T06:10:54.479Z,2.38
2017-12-30T06:12:21.775Z,2.40
2017-12-30T06:13:48.878Z,2.40
2017-12-30T06:15:16.951Z,2.42
2017-12-30T06:16:44.150Z,2.43
2017-12-30T06:18:10.381Z,2.43
2017-12-30T06:19:37.517Z,2.44
2017-12-30T06:21:04.860Z,2.46
2017-12-30T06:22:33.233Z,2.47
2017-12-30T06:23:59.347Z,2.45
2017-12-30T06:25:26.564Z,2.44
2017-12-30T06:26:54.603Z,2.45
2017-12-30T06:28:21.779Z,2.45
2017-12-30T06:29:48.801Z,2.47
2017-12-30T06:31:14.927Z,2.47
2017-12-30T06:32:43.066Z,2.47
2017-12-30T06:34:10.290Z,2.47
2017-12-30T06:35:36.429Z,2.48
2017-12-30T06:37:03.546Z,2.49
2017-12-30T06:38:30.738Z,2.50
2017-12-30T06:39:57.877Z,2.53
2017-12-30T06:41:26.117Z,2.55
2017-12-30T06:42:53.320Z,2.56
2017-12-30T06:44:19.206Z,2.54
2017-12-30T06:45:46.451Z,2.54
2017-12-30T06:47:13.303Z,2.54
2017-12-30T06:48:41.528Z,2.55
2017-12-30T06:50:08.750Z,2.54
2017-12-30T06:51:36.026Z,2.54
2017-12-30T06:53:03.160Z,2.55
2017-12-30T06:54:30.459Z,2.56
2017-12-30T06:55:57.477Z,2.57
2017-12-30T06:57:23.697Z,2.59
2017-12-30T06:58:52.074Z,2.61
2017-12-30T07:00:18.191Z,2.64
2017-12-30T07:01:46.189Z,2.66
2017-12-30T07:03:13.598Z,2.68
2017-12-30T07:04:39.819Z,2.69
2017-12-30T07:06:06.948Z,2.70
2017-12-30T07:07:34.173Z,2.68
2017-12-30T07:09:02.241Z,2.68
2017-12-30T07:10:29.375Z,2.69
2017-12-30T07:11:55.583Z,2.69
2017-12-30T07:13:22.766Z,2.70
2017-12-30T07:14:50.811Z,2.70
2017-12-30T07:16:17.953Z,2.70
2017-12-30T07:17:45.087Z,2.70
2017-12-30T07:19:12.314Z,2.72
2017-12-30T07:20:39.564Z,2.74
2017-12-30T07:22:05.698Z,2.76
2017-12-30T07:23:32.824Z,2.78
2017-12-30T07:25:00.136Z,2.79
2017-12-30T07:26:28.343Z,2.81
2017-12-30T07:27:54.385Z,2.82
2017-12-30T07:29:22.693Z,2.85
2017-12-30T07:30:48.866Z,2.86
2017-12-30T07:32:15.945Z,2.86
2017-12-30T07:33:43.047Z,2.87
2017-12-30T07:35:11.135Z,2.89
2017-12-30T07:36:37.269Z,2.89
2017-12-30T07:38:04.509Z,2.89
2017-12-30T07:39:31.700Z,2.88
2017-12-30T07:40:58.898Z,2.89
2017-12-30T07:42:27.024Z,2.90
2017-12-30T07:43:54.087Z,2.91
2017-12-30T07:45:20.037Z,2.93
2017-12-30T07:46:48.309Z,2.95
2017-12-30T07:48:14.548Z,2.96
2017-12-30T07:49:42.760Z,2.98
2017-12-30T07:51:08.966Z,3.01
2017-12-30T07:52:36.098Z,3.00
2017-12-30T07:54:04.238Z,3.01
2017-12-30T07:55:31.058Z,3.02
2017-12-30T07:56:57.362Z,3.01
2017-12-30T07:58:25.451Z,3.01
2017-12-30T07:59:52.645Z,3.02
2017-12-30T08:01:18.804Z,3.03
2017-12-30T08:02:46.841Z,3.03
2017-12-30T08:04:13.825Z,3.05
2017-12-30T08:05:39.996Z,3.04
2017-12-30T08:07:08.263Z,3.05
2017-12-30T08:08:34.429Z,3.06
2017-12-30T08:10:01.469Z,3.07
2017-12-30T08:11:28.807Z,3.07
2017-12-30T08:12:56.991Z,3.08
2017-12-30T08:14:23.263Z,3.06
2017-12-30T08:15:51.377Z,3.07
2017-12-30T08:17:17.444Z,3.08
2017-12-30T08:18:44.595Z,3.09
2017-12-30T08:20:12.824Z,3.11
2017-12-30T08:21:38.939Z,3.13
2017-12-30T08:23:06.158Z,3.14
2017-12-30T08:24:33.410Z,3.16
2017-12-30T08:26:01.702Z,3.15
2017-12-30T08:27:28.822Z,3.15
2017-12-30T08:28:56.081Z,3.15
2017-12-30T08:30:22.248Z,3.16
2017-12-30T08:31:50.382Z,3.16
2017-12-30T08:33:16.633Z,3.15
2017-12-30T08:34:43.887Z,3.16
2017-12-30T08:36:12.010Z,3.17
2017-12-30T08:37:39.039Z,3.17
2017-12-30T08:39:06.185Z,3.17
2017-12-30T08:40:32.424Z,3.19
2017-12-30T08:42:00.740Z,3.20
2017-12-30T08:43:26.902Z,3.21
2017-12-30T08:44:55.097Z,3.22
2017-12-30T08:46:21.300Z,3.21
2017-12-30T08:47:49.555Z,3.20
2017-12-30T08:49:15.848Z,3.21
2017-12-30T08:50:42.723Z,3.20
2017-12-30T08:52:09.981Z,3.21
2017-12-30T08:53:38.052Z,3.22
2017-12-30T08:55:04.313Z,3.23
2017-12-30T08:56:31.603Z,3.24
2017-12-30T08:57:59.846Z,3.26
2017-12-30T08:59:26.824Z,3.26
2017-12-30T09:00:53.118Z,3.28
2017-12-30T09:02:20.482Z,3.28
2017-12-30T09:03:48.652Z,3.30
2017-12-30T09:05:14.816Z,3.31
2017-12-30T09:06:42.247Z,3.32
2017-12-30T09:08:10.377Z,3.33
2017-12-30T09:09:37.639Z,3.35
2017-12-30T09:11:04.728Z,3.37
2017-12-30T09:12:32.087Z,3.38
2017-12-30T09:13:59.349Z,3.40
2017-12-30T09:15:25.531Z,3.39
2017-12-30T09:16:52.818Z,3.41
2017-12-30T09:18:20.833Z,3.42
2017-12-30T09:19:48.084Z,3.42
2017-12-30T09:21:15.295Z,3.42
2017-12-30T09:22:41.557Z,3.43
2017-12-30T09:24:08.753Z,3.43
2017-12-30T09:25:35.965Z,3.43
2017-12-30T09:27:03.321Z,3.44
2017-12-30T09:28:30.540Z,3.45
2017-12-30T09:29:58.725Z,3.45
2017-12-30T09:31:25.078Z,3.47
2017-12-30T09:32:52.369Z,3.49
2017-12-30T09:34:20.630Z,3.50
2017-12-30T09:35:47.986Z,3.52
2017-12-30T09:37:14.217Z,3.53
2017-12-30T09:38:42.340Z,3.53
2017-12-30T09:40:08.586Z,3.53
2017-12-30T09:41:36.771Z,3.53
2017-12-30T09:43:04.021Z,3.54
2017-12-30T09:44:30.216Z,3.54
2017-12-30T09:45:57.485Z,3.56
2017-12-30T09:47:25.860Z,3.58
2017-12-30T09:48:52.892Z,3.60
2017-12-30T09:50:20.164Z,3.62
2017-12-30T09:51:46.324Z,3.66
2017-12-30T09:53:13.359Z,3.68
2017-12-30T09:54:40.610Z,3.71
2017-12-30T09:56:07.951Z,3.73
2017-12-30T09:57:36.218Z,3.75
2017-12-30T09:59:02.217Z,3.77
2017-12-30T10:00:30.444Z,3.80
2017-12-30T10:01:57.631Z,3.82
2017-12-30T10:03:24.978Z,3.84
2017-12-30T10:04:51.074Z,3.86
2017-12-30T10:06:19.251Z,3.89
2017-12-30T10:07:46.529Z,3.91
2017-12-30T10:09:13.582Z,3.93
2017-12-30T10:10:39.735Z,3.94
2017-12-30T10:12:07.842Z,3.97
2017-12-30T10:13:34.958Z,3.97
2017-12-30T10:15:01.052Z,3.98
2017-12-30T10:16:29.284Z,4.00
2017-12-30T10:17:55.508Z,4.02
2017-12-30T10:19:22.711Z,4.03
2017-12-30T10:20:49.993Z,4.04
2017-12-30T10:22:17.070Z,4.04
2017-12-30T10:23:45.132Z,4.04
2017-12-30T10:25:11.322Z,4.03
2017-12-30T10:26:38.621Z,4.02
2017-12-30T10:28:05.764Z,4.03
2017-12-30T10:29:34.226Z,4.05
2017-12-30T10:31:01.381Z,4.06
2017-12-30T10:32:27.607Z,4.07
2017-12-30T10:33:54.875Z,4.07
2017-12-30T10:35:22.990Z,4.08
2017-12-30T10:36:49.296Z,4.10
2017-12-30T10:38:16.329Z,4.12
2017-12-30T10:39:44.555Z,4.13
2017-12-30T10:41:10.528Z,4.13
2017-12-30T10:42:38.841Z,4.12
2017-12-30T10:44:05.749Z,4.14
2017-12-30T10:45:31.870Z,4.16
2017-12-30T10:47:00.316Z,4.16
2017-12-30T10:48:27.225Z,4.16
2017-12-30T10:49:53.407Z,4.17
2017-12-30T10:51:20.659Z,4.17
2017-12-30T10:52:47.801Z,4.17
2017-12-30T10:54:18.064Z,4.14
2017-12-30T10:55:42.333Z,4.12
2017-12-30T10:57:10.084Z,4.10
2017-12-30T10:58:37.503Z,4.10
2017-12-30T11:00:02.318Z,4.11
2017-12-30T11:01:29.223Z,4.10
2017-12-30T11:02:56.211Z,4.10
2017-12-30T11:04:24.387Z,4.10
2017-12-30T11:05:50.640Z,4.10
2017-12-30T11:07:18.681Z,4.10
2017-12-30T11:08:44.708Z,4.11
2017-12-30T11:10:11.904Z,4.13
2017-12-30T11:11:39.085Z,4.13
2017-12-30T11:13:06.246Z,4.14
2017-12-30T11:14:33.414Z,4.15
2017-12-30T11:16:00.818Z,4.16
2017-12-30T11:17:29.179Z,4.17
2017-12-30T11:18:55.478Z,4.19
2017-12-30T11:20:22.825Z,4.20
2017-12-30T11:21:49.973Z,4.21
2017-12-30T11:23:16.955Z,4.18
2017-12-30T11:24:45.027Z,4.19
2017-12-30T11:26:12.227Z,4.17
2017-12-30T11:27:39.545Z,4.18
2017-12-30T11:29:06.830Z,4.21
2017-12-30T11:30:33.127Z,4.22
2017-12-30T11:32:01.466Z,4.24
2017-12-30T11:33:28.704Z,4.25
2017-12-30T11:34:55.988Z,4.23
2017-12-30T11:36:22.315Z,4.22
2017-12-30T11:37:49.187Z,4.22
2017-12-30T11:39:16.385Z,4.22
2017-12-30T11:40:43.482Z,4.24
2017-12-30T11:42:10.836Z,4.25
2017-12-30T11:43:37.977Z,4.26
2017-12-30T11:45:05.359Z,4.26
2017-12-30T11:46:32.553Z,4.27
2017-12-30T11:48:00.744Z,4.27
2017-12-30T11:49:26.899Z,4.27
2017-12-30T11:50:55.277Z,4.26
2017-12-30T11:52:21.509Z,4.25
2017-12-30T11:53:48.565Z,4.24
2017-12-30T11:55:15.681Z,4.23
2017-12-30T11:56:42.672Z,4.20
2017-12-30T11:58:09.724Z,4.21
2017-12-30T11:59:36.869Z,4.22
2017-12-30T12:01:05.018Z,4.22
2017-12-30T12:02:32.377Z,4.22
2017-12-30T12:03:59.553Z,4.23
2017-12-30T12:05:25.844Z,4.24
2017-12-30T12:06:54.104Z,4.25
2017-12-30T12:08:20.346Z,4.27
2017-12-30T12:09:48.689Z,4.29
2017-12-30T12:11:14.660Z,4.30
2017-12-30T12:12:41.776Z,4.31
2017-12-30T12:14:08.742Z,4.31
2017-12-30T12:15:36.762Z,4.33
2017-12-30T12:17:03.182Z,4.34
2017-12-30T12:18:30.358Z,4.36
2017-12-30T12:19:58.544Z,4.38
2017-12-30T12:21:25.847Z,4.39
2017-12-30T12:22:53.032Z,4.40
2017-12-30T12:24:19.316Z,4.40
2017-12-30T12:25:46.417Z,4.41
2017-12-30T12:27:13.627Z,4.42
2017-12-30T12:28:40.926Z,4.45
2017-12-30T12:30:09.270Z,4.45
2017-12-30T12:31:36.443Z,4.46
2017-12-30T12:33:03.411Z,4.46
2017-12-30T12:34:30.705Z,4.46
2017-12-30T12:35:57.091Z,4.45
2017-12-30T12:37:25.230Z,4.44
2017-12-30T12:38:52.352Z,4.41
2017-12-30T12:40:19.490Z,4.43
2017-12-30T12:41:46.308Z,4.42
2017-12-30T12:43:12.690Z,4.42
2017-12-30T12:44:39.902Z,4.44
2017-12-30T12:46:07.092Z,4.44
2017-12-30T12:47:34.310Z,4.42
2017-12-30T12:49:01.527Z,4.42
2017-12-30T12:50:28.705Z,4.42
2017-12-30T12:51:55.950Z,4.41
2017-12-30T12:53:22.989Z,4.41
2017-12-30T12:54:51.251Z,4.40
2017-12-30T12:56:18.389Z,4.40
2017-12-30T12:57:44.502Z,4.37
2017-12-30T12:59:11.773Z,4.38
2017-12-30T13:00:39.943Z,4.35
2017-12-30T13:02:06.287Z,4.34
2017-12-30T13:03:34.621Z,4.34
2017-12-30T13:05:00.968Z,4.36
2017-12-30T13:06:28.344Z,4.35
2017-12-30T13:07:55.600Z,4.36
2017-12-30T13:09:23.867Z,4.35
2017-12-30T13:10:50.207Z,4.33
2017-12-30T13:12:17.500Z,4.33
2017-12-30T13:13:44.437Z,4.33
2017-12-30T13:15:11.600Z,4.32
2017-12-30T13:16:39.919Z,4.33
2017-12-30T13:18:05.973Z,4.33
2017-12-30T13:19:33.247Z,4.34
2017-12-30T13:21:00.310Z,4.35
2017-12-30T13:22:27.663Z,4.35
2017-12-30T13:23:54.883Z,4.34
2017-12-30T13:25:21.844Z,4.34
2017-12-30T13:26:49.118Z,4.34
2017-12-30T13:28:17.311Z,4.36
2017-12-30T13:29:43.398Z,4.36
2017-12-30T13:31:11.548Z,4.36
2017-12-30T13:32:38.677Z,4.36
2017-12-30T13:34:04.742Z,4.37
2017-12-30T13:35:31.999Z,4.35
2017-12-30T13:36:59.203Z,4.36
2017-12-30T13:38:26.402Z,4.34
2017-12-30T13:39:54.657Z,4.31
2017-12-30T13:41:20.867Z,4.32
2017-12-30T13:42:48.710Z,4.31
2017-12-30T13:44:14.488Z,4.32
2017-12-30T13:45:41.747Z,4.31
2017-12-30T13:47:09.927Z,4.30
2017-12-30T13:48:36.219Z,4.26
2017-12-30T13:50:03.580Z,4.24
2017-12-30T13:51:31.822Z,4.23
2017-12-30T13:52:58.158Z,4.22
2017-12-30T13:54:25.173Z,4.22
2017-12-30T13:55:53.353Z,4.23
2017-12-30T13:57:19.651Z,4.18
2017-12-30T13:58:47.813Z,4.17
2017-12-30T14:00:14.995Z,4.14
2017-12-30T14:01:41.127Z,4.11
2017-12-30T14:03:08.242Z,4.11
2017-12-30T14:04:36.372Z,4.11
2017-12-30T14:06:02.769Z,4.05
2017-12-30T14:07:30.160Z,4.04
2017-12-30T14:08:57.342Z,3.98
2017-12-30T14:10:24.635Z,3.97
2017-12-30T14:11:51.689Z,3.95
2017-12-30T14:13:18.841Z,3.96
2017-12-30T14:14:46.021Z,3.95
2017-12-30T14:16:14.062Z,3.95
2017-12-30T14:17:40.212Z,3.94
2017-12-30T14:19:08.372Z,3.91
2017-12-30T14:20:35.699Z,3.89
2017-12-30T14:22:01.822Z,3.91
2017-12-30T14:23:30.010Z,3.92
2017-12-30T14:24:56.450Z,3.92
2017-12-30T14:26:23.558Z,3.85
2017-12-30T14:27:50.814Z,3.76
2017-12-30T14:29:18.006Z,3.74
2017-12-30T14:30:45.151Z,3.73
2017-12-30T14:32:13.274Z,3.67
2017-12-30T14:33:39.509Z,3.68
2017-12-30T14:35:06.829Z,3.70
2017-12-30T14:36:34.073Z,3.69
2017-12-30T14:38:02.319Z,3.71
2017-12-30T14:39:28.458Z,3.69
2017-12-30T14:40:56.658Z,3.64
2017-12-30T14:42:22.762Z,3.60
2017-12-30T14:43:50.039Z,3.54
2017-12-30T14:45:17.173Z,3.55
2017-12-30T14:46:44.170Z,3.57
2017-12-30T14:48:11.368Z,3.52
2017-12-30T14:49:38.662Z,3.44
2017-12-30T14:51:05.820Z,3.43
2017-12-30T14:52:33.034Z,3.40
2017-12-30T14:54:00.303Z,3.37
2017-12-30T14:55:27.516Z,3.35
2017-12-30T14:56:55.809Z,3.35
2017-12-30T14:58:21.687Z,3.34
2017-12-30T14:59:49.007Z,3.31
2017-12-30T15:01:17.137Z,3.32
2017-12-30T15:02:43.118Z,3.33
2017-12-30T15:04:10.235Z,3.35
2017-12-30T15:05:37.663Z,3.32
2017-12-30T15:07:05.879Z,3.34
2017-12-30T15:08:32.102Z,3.36
2017-12-30T15:09:59.344Z,3.38
2017-12-30T15:11:27.581Z,3.38
2017-12-30T15:12:54.717Z,3.38
2017-12-30T15:14:20.773Z,3.37
2017-12-30T15:15:47.735Z,3.35
2017-12-30T15:17:14.699Z,3.36
2017-12-30T15:18:42.720Z,3.36
2017-12-30T15:20:09.734Z,3.42
2017-12-30T15:21:35.709Z,3.42
2017-12-30T15:23:03.726Z,3.43
2017-12-30T15:24:30.849Z,3.41
2017-12-30T15:25:58.153Z,3.39
2017-12-30T15:27:24.218Z,3.37
2017-12-30T15:28:52.440Z,3.39
2017-12-30T15:30:18.632Z,3.43
2017-12-30T15:31:45.758Z,3.45
2017-12-30T15:33:12.812Z,3.46
2017-12-30T15:34:39.985Z,3.49
2017-12-30T15:36:07.054Z,3.51
2017-12-30T15:37:35.342Z,3.56
2017-12-30T15:39:01.642Z,3.57
2017-12-30T15:40:28.786Z,3.59
2017-12-30T15:41:55.899Z,3.59
2017-12-30T15:43:23.770Z,3.59
2017-12-30T15:44:50.751Z,3.56
2017-12-30T15:46:16.799Z,3.55
2017-12-30T15:47:43.987Z,3.57
2017-12-30T15:49:12.082Z,3.58
2017-12-30T15:50:38.252Z,3.58
2017-12-30T15:52:05.408Z,3.56
2017-12-30T15:53:32.724Z,3.56
2017-12-30T15:55:00.071Z,3.53
2017-12-30T15:56:27.221Z,3.54
2017-12-30T15:57:54.244Z,3.54
2017-12-30T15:59:22.460Z,3.55
2017-12-30T16:00:49.526Z,3.54
2017-12-30T16:02:16.386Z,3.54
2017-12-30T16:03:43.829Z,3.53
2017-12-30T16:05:11.107Z,3.57
2017-12-30T16:06:37.263Z,3.58
2017-12-30T16:08:04.408Z,3.60
2017-12-30T16:09:31.585Z,3.61
2017-12-30T16:10:58.885Z,3.63
2017-12-30T16:12:27.013Z,3.65
2017-12-30T16:13:54.128Z,3.65
2017-12-30T16:15:20.443Z,3.65
2017-12-30T16:16:48.764Z,3.66
2017-12-30T16:18:15.864Z,3.68
2017-12-30T16:19:42.247Z,3.67
2017-12-30T16:21:10.293Z,3.60
2017-12-30T16:22:36.657Z,3.61
2017-12-30T16:24:04.717Z,3.60
2017-12-30T16:25:30.707Z,3.60
2017-12-30T16:26:57.813Z,3.61
2017-12-30T16:28:25.251Z,3.65
2017-12-30T16:29:53.283Z,3.68
2017-12-30T16:31:13.259Z,3.68
2017-12-30T16:32:46.435Z,3.69
2017-12-30T16:34:13.756Z,3.71
2017-12-30T16:35:41.001Z,3.71
2017-12-30T16:37:08.288Z,3.72
2017-12-30T16:38:35.257Z,3.70
2017-12-30T16:40:02.526Z,3.68
2017-12-30T16:41:30.457Z,3.68
2017-12-30T16:42:57.452Z,3.69
2017-12-30T16:44:23.730Z,3.70
2017-12-30T16:45:50.863Z,3.72
2017-12-30T16:47:18.895Z,3.71
2017-12-30T16:48:45.028Z,3.75
2017-12-30T16:50:12.222Z,3.75
2017-12-30T16:51:39.463Z,3.76
2017-12-30T16:53:06.733Z,3.74
2017-12-30T16:54:33.765Z,3.78
2017-12-30T16:56:00.996Z,3.80
2017-12-30T16:57:29.048Z,3.81
2017-12-30T16:58:56.182Z,3.81
2017-12-30T17:00:22.439Z,3.82
2017-12-30T17:01:50.702Z,3.82
2017-12-30T17:03:16.899Z,3.82
2017-12-30T17:04:44.870Z,3.83
2017-12-30T17:06:11.167Z,3.84
2017-12-30T17:07:38.647Z,3.85
2017-12-30T17:09:05.598Z,3.86
2017-12-30T17:10:33.847Z,3.86
2017-12-30T17:12:01.209Z,3.85
2017-12-30T17:13:28.431Z,3.85
2017-12-30T17:14:55.559Z,3.86
2017-12-30T17:16:27.466Z,3.85
2017-12-30T17:17:49.475Z,3.86
2017-12-30T17:19:16.656Z,3.85
2017-12-30T17:20:42.778Z,3.85
2017-12-30T17:22:10.030Z,3.85
2017-12-30T17:23:37.128Z,3.85
2017-12-30T17:25:04.270Z,3.85
2017-12-30T17:26:32.308Z,3.86
2017-12-30T17:27:58.456Z,3.86
2017-12-30T17:29:26.553Z,3.87
2017-12-30T17:30:52.812Z,3.89
2017-12-30T17:32:20.106Z,3.89
2017-12-30T17:33:47.252Z,3.90
2017-12-30T17:35:15.399Z,3.92
2017-12-30T17:36:42.554Z,3.93
2017-12-30T17:38:08.994Z,3.86
2017-12-30T17:39:36.167Z,3.87
2017-12-30T17:41:03.470Z,3.90
2017-12-30T17:42:31.524Z,3.92
2017-12-30T17:43:57.680Z,3.95
2017-12-30T17:45:25.931Z,3.98
2017-12-30T17:46:53.124Z,4.00
2017-12-30T17:48:20.363Z,4.03
2017-12-30T17:49:46.628Z,4.05
2017-12-30T17:51:13.809Z,4.07
2017-12-30T17:52:41.024Z,4.09
2017-12-30T17:54:08.241Z,4.11
2017-12-30T17:55:35.553Z,4.12
2017-12-30T17:57:03.329Z,4.13
2017-12-30T17:58:29.226Z,4.14
2017-12-30T17:59:57.470Z,4.16
2017-12-30T18:01:23.497Z,4.18
2017-12-30T18:02:50.550Z,4.20
2017-12-30T18:04:18.666Z,4.22
2017-12-30T18:05:44.666Z,4.24
2017-12-30T18:07:12.861Z,4.27
2017-12-30T18:08:40.040Z,4.29
2017-12-30T18:10:07.115Z,4.31
2017-12-30T18:11:34.160Z,4.34
2017-12-30T18:13:00.287Z,4.36
2017-12-30T18:14:27.392Z,4.40
2017-12-30T18:15:54.426Z,4.45
2017-12-30T18:17:21.627Z,4.48
2017-12-30T18:18:48.886Z,4.52
2017-12-30T18:20:17.055Z,4.55
2017-12-30T18:21:43.061Z,4.59
2017-12-30T18:23:11.361Z,4.63
2017-12-30T18:24:37.592Z,4.67
2017-12-30T18:26:04.642Z,4.72
2017-12-30T18:27:31.416Z,4.76
2017-12-30T18:28:58.721Z,4.79
2017-12-30T18:30:26.048Z,4.82
2017-12-30T18:31:54.333Z,4.86
2017-12-30T18:33:20.557Z,4.88
2017-12-30T18:34:47.565Z,4.91
2017-12-30T18:36:14.708Z,4.94
2017-12-30T18:37:41.922Z,4.96
2017-12-30T18:39:09.126Z,4.99
2017-12-30T18:40:36.316Z,5.01
2017-12-30T18:42:04.519Z,5.04
2017-12-30T18:43:30.861Z,5.06
2017-12-30T18:44:58.137Z,5.08
2017-12-30T18:46:26.294Z,5.11
2017-12-30T18:47:52.545Z,5.13
2017-12-30T18:49:20.798Z,5.15
2017-12-30T18:50:48.012Z,5.18
2017-12-30T18:52:14.158Z,5.20
2017-12-30T18:53:42.527Z,5.24
2017-12-30T18:55:09.782Z,5.27
2017-12-30T18:56:36.947Z,5.29
2017-12-30T18:58:04.298Z,5.31
2017-12-30T18:59:30.513Z,5.33
2017-12-30T19:00:57.749Z,5.36
2017-12-30T19:02:25.869Z,5.38
2017-12-30T19:03:53.004Z,5.42
2017-12-30T19:05:19.192Z,5.45
2017-12-30T19:06:47.452Z,5.48
2017-12-30T19:08:14.571Z,5.51
2017-12-30T19:09:40.798Z,5.53
2017-12-30T19:11:08.052Z,5.55
2017-12-30T19:12:35.452Z,5.58
2017-12-30T19:14:03.578Z,5.60
2017-12-30T19:15:29.799Z,5.62
2017-12-30T19:16:57.818Z,5.64
2017-12-30T19:18:24.024Z,5.66
2017-12-30T19:19:51.274Z,5.68